Terminal Aerodrome Forecast
Issued by NWS Charleston, WV

Current Version | Previous Version | Text Only | Print | Product List | Glossary Off
Versions: 1 2 3 4 5 6 7 8 9 10 11 12 13 14 15 16 17 18 19 20 21

000
FTUS41 KRLX 182300
TAFBKW
TAF
KBKW 182328Z 1900/1924 26006KT P6SM SKC
     FM191100 22005KT P6SM SCT200
     FM191600 21009G15KT P6SM SCT140=

USA.gov is the U.S. government's official web portal to all federal, state and local government web resources and services.